createdAt,value
2022-08-28T04:30:53.926Z,1002.47
2022-08-28T04:31:53.978Z,1002.45
2022-08-28T04:32:53.911Z,1002.49
2022-08-28T04:33:53.884Z,1002.49
2022-08-28T04:34:53.874Z,1002.51
2022-08-28T04:35:53.864Z,1002.53
2022-08-28T04:36:54.006Z,1002.53
2022-08-28T04:37:55.585Z,1002.56
2022-08-28T04:38:53.801Z,1002.57
2022-08-28T04:39:53.844Z,1002.57
2022-08-28T04:40:53.803Z,1002.57
2022-08-28T04:41:53.792Z,1002.55
2022-08-28T04:42:53.765Z,1002.55
2022-08-28T04:43:53.747Z,1002.60
2022-08-28T04:44:53.738Z,1002.60
2022-08-28T04:45:53.858Z,1002.65
2022-08-28T04:46:53.805Z,1002.64
2022-08-28T04:47:53.710Z,1002.66
2022-08-28T04:48:53.693Z,1002.71
2022-08-28T04:49:53.679Z,1002.66
2022-08-28T04:50:53.679Z,1002.71
2022-08-28T04:51:53.659Z,1002.73
2022-08-28T04:52:53.692Z,1002.73
2022-08-28T04:53:53.659Z,1002.76
2022-08-28T04:54:53.625Z,1002.79
2022-08-28T04:55:55.267Z,1002.81
2022-08-28T04:56:53.641Z,1002.78
2022-08-28T04:57:53.598Z,1002.80
2022-08-28T04:58:53.608Z,1002.82
2022-08-28T04:59:53.587Z,1002.79
2022-08-28T05:00:53.621Z,1002.78
2022-08-28T05:01:53.688Z,1002.79
2022-08-28T05:02:53.563Z,1002.78
2022-08-28T05:03:53.527Z,1002.75
2022-08-28T05:04:53.551Z,1002.77
2022-08-28T05:05:53.504Z,1002.76
2022-08-28T05:06:53.531Z,1002.80
2022-08-28T05:07:53.501Z,1002.78
2022-08-28T05:08:53.480Z,1002.80
2022-08-28T05:09:53.461Z,1002.80
2022-08-28T05:10:53.465Z,1002.79
2022-08-28T05:11:53.459Z,1002.79
2022-08-28T05:12:53.443Z,1002.83
2022-08-28T05:13:53.450Z,1002.85
2022-08-28T05:14:53.405Z,1002.83
2022-08-28T05:15:53.521Z,1002.86
2022-08-28T05:16:53.436Z,1002.86
2022-08-28T05:17:53.372Z,1002.91
2022-08-28T05:18:53.373Z,1002.89
2022-08-28T05:19:53.349Z,1002.93
2022-08-28T05:20:53.343Z,1002.91
2022-08-28T05:21:53.329Z,1002.91
2022-08-28T05:22:53.343Z,1002.93
2022-08-28T05:23:53.301Z,1002.96
2022-08-28T05:24:53.310Z,1003.05
2022-08-28T05:25:53.282Z,1003.01
2022-08-28T05:26:53.276Z,1003.02
2022-08-28T05:27:53.258Z,1003.01
2022-08-28T05:28:53.263Z,1003.02
2022-08-28T05:29:53.240Z,1003.07
2022-08-28T05:30:53.242Z,1003.06
2022-08-28T05:31:53.323Z,1003.07
2022-08-28T05:32:53.204Z,1003.10
2022-08-28T05:33:53.194Z,1003.07
2022-08-28T05:34:53.197Z,1003.05
2022-08-28T05:35:53.191Z,1003.10
2022-08-28T05:36:53.191Z,1003.15
2022-08-28T05:37:53.174Z,1003.16
2022-08-28T05:38:53.366Z,1003.14
2022-08-28T05:39:53.170Z,1003.13
2022-08-28T05:40:53.132Z,1003.16
2022-08-28T05:41:53.132Z,1003.16
2022-08-28T05:42:53.095Z,1003.12
2022-08-28T05:43:53.078Z,1003.17
2022-08-28T05:44:54.597Z,1003.13
2022-08-28T05:45:53.115Z,1003.15
2022-08-28T05:46:53.102Z,1003.17
2022-08-28T05:47:53.039Z,1003.14
2022-08-28T05:48:53.033Z,1003.15
2022-08-28T05:49:53.036Z,1003.17
2022-08-28T05:50:53.023Z,1003.16
2022-08-28T05:51:52.997Z,1003.16
2022-08-28T05:52:53.018Z,1003.18
2022-08-28T05:53:52.974Z,1003.20
2022-08-28T05:54:52.966Z,1003.23
2022-08-28T05:55:52.956Z,1003.21
2022-08-28T05:56:52.941Z,1003.20
2022-08-28T05:57:52.929Z,1003.25
2022-08-28T05:58:52.950Z,1003.19
2022-08-28T05:59:52.908Z,1003.26
2022-08-28T06:00:52.918Z,1003.29
2022-08-28T06:01:52.922Z,1003.24
2022-08-28T06:02:52.880Z,1003.24
2022-08-28T06:03:52.932Z,1003.27
2022-08-28T06:04:52.862Z,1003.20
2022-08-28T06:05:52.844Z,1003.24
2022-08-28T06:06:52.848Z,1003.24
2022-08-28T06:07:52.816Z,1003.21
2022-08-28T06:08:58.259Z,1003.24
2022-08-28T06:09:53.862Z,1003.23
2022-08-28T06:10:52.798Z,1003.27
2022-08-28T06:11:52.778Z,1003.27
2022-08-28T06:12:52.775Z,1003.23
2022-08-28T06:13:52.767Z,1003.30
2022-08-28T06:14:52.742Z,1003.27
2022-08-28T06:15:52.763Z,1003.28
2022-08-28T06:16:52.717Z,1003.26
2022-08-28T06:17:52.719Z,1003.30
2022-08-28T06:18:52.713Z,1003.28
2022-08-28T06:19:52.685Z,1003.26
2022-08-28T06:20:52.676Z,1003.29
2022-08-28T06:21:52.663Z,1003.31
2022-08-28T06:22:52.668Z,1003.28
2022-08-28T06:23:52.662Z,1003.31
2022-08-28T06:24:52.641Z,1003.31
2022-08-28T06:25:52.625Z,1003.28
2022-08-28T06:26:52.605Z,1003.35
2022-08-28T06:27:52.618Z,1003.35
2022-08-28T06:28:52.590Z,1003.36
2022-08-28T06:29:52.596Z,1003.40
2022-08-28T06:31:15.960Z,1003.39
2022-08-28T06:31:53.601Z,1003.46
2022-08-28T06:32:52.547Z,1003.41
2022-08-28T06:33:52.526Z,1003.47
2022-08-28T06:34:52.536Z,1003.52
2022-08-28T06:35:52.534Z,1003.47
2022-08-28T06:36:54.137Z,1003.48
2022-08-28T06:37:52.491Z,1003.48
2022-08-28T06:38:52.483Z,1003.50
2022-08-28T06:39:52.529Z,1003.48
2022-08-28T06:40:52.481Z,1003.45
2022-08-28T06:41:52.458Z,1003.43
2022-08-28T06:42:52.438Z,1003.44
2022-08-28T06:43:52.431Z,1003.43
2022-08-28T06:44:52.412Z,1003.48
2022-08-28T06:45:52.420Z,1003.46
2022-08-28T06:46:52.412Z,1003.46
2022-08-28T06:47:52.394Z,1003.44
2022-08-28T06:48:52.372Z,1003.49
2022-08-28T06:49:52.360Z,1003.50
2022-08-28T06:50:52.350Z,1003.51
2022-08-28T06:51:52.376Z,1003.49
2022-08-28T06:52:52.326Z,1003.51
2022-08-28T06:53:52.330Z,1003.54
2022-08-28T06:54:55.400Z,1003.56
2022-08-28T06:55:52.304Z,1003.54
2022-08-28T06:56:52.287Z,1003.52
2022-08-28T06:57:52.304Z,1003.51
2022-08-28T06:58:52.304Z,1003.52
2022-08-28T06:59:52.254Z,1003.55
2022-08-28T07:00:59.578Z,1003.51
2022-08-28T07:01:53.449Z,1003.50
2022-08-28T07:02:52.264Z,1003.52
2022-08-28T07:03:52.208Z,1003.47
2022-08-28T07:04:52.207Z,1003.56
2022-08-28T07:05:52.197Z,1003.52
2022-08-28T07:06:54.585Z,1003.54
2022-08-28T07:07:52.335Z,1003.51
2022-08-28T07:08:52.153Z,1003.51
2022-08-28T07:09:52.151Z,1003.50
2022-08-28T07:10:52.138Z,1003.53
2022-08-28T07:11:52.131Z,1003.51
2022-08-28T07:12:52.112Z,1003.54
2022-08-28T07:13:52.099Z,1003.53
2022-08-28T07:14:52.106Z,1003.55
2022-08-28T07:15:52.105Z,1003.61
2022-08-28T07:16:52.070Z,1003.56
2022-08-28T07:17:52.082Z,1003.61
2022-08-28T07:18:52.044Z,1003.55
2022-08-28T07:19:52.034Z,1003.56
2022-08-28T07:20:52.026Z,1003.61
2022-08-28T07:21:52.047Z,1003.61
2022-08-28T07:22:52.000Z,1003.62
2022-08-28T07:23:53.065Z,1003.58
2022-08-28T07:24:51.988Z,1003.62
2022-08-28T07:25:51.975Z,1003.63
2022-08-28T07:26:51.977Z,1003.58
2022-08-28T07:27:51.943Z,1003.60
2022-08-28T07:28:51.942Z,1003.56
2022-08-28T07:29:51.936Z,1003.60
2022-08-28T07:30:51.949Z,1003.58
2022-08-28T07:31:51.918Z,1003.59
2022-08-28T07:32:51.891Z,1003.65
2022-08-28T07:33:54.000Z,1003.66
2022-08-28T07:34:51.884Z,1003.64
2022-08-28T07:35:51.871Z,1003.67
2022-08-28T07:36:51.849Z,1003.64
2022-08-28T07:37:51.833Z,1003.66
2022-08-28T07:38:51.835Z,1003.67
2022-08-28T07:39:51.812Z,1003.72
2022-08-28T07:40:51.828Z,1003.70
2022-08-28T07:41:51.809Z,1003.69
2022-08-28T07:42:51.782Z,1003.71
2022-08-28T07:43:51.772Z,1003.68
2022-08-28T07:44:51.778Z,1003.73
2022-08-28T07:45:51.833Z,1003.70
2022-08-28T07:46:51.742Z,1003.76
2022-08-28T07:47:51.737Z,1003.76
2022-08-28T07:48:51.727Z,1003.75
2022-08-28T07:49:51.717Z,1003.76
2022-08-28T07:50:51.694Z,1003.75
2022-08-28T07:51:54.243Z,1003.77
2022-08-28T07:52:51.690Z,1003.78
2022-08-28T07:53:51.693Z,1003.76
2022-08-28T07:54:51.651Z,1003.79
2022-08-28T07:55:51.638Z,1003.81
2022-08-28T07:56:51.657Z,1003.79
2022-08-28T07:57:51.617Z,1003.81
2022-08-28T07:58:51.613Z,1003.83
2022-08-28T07:59:51.631Z,1003.77
2022-08-28T08:00:51.632Z,1003.79
2022-08-28T08:01:51.883Z,1003.81
2022-08-28T08:02:51.569Z,1003.82
2022-08-28T08:03:51.615Z,1003.79
2022-08-28T08:04:52.589Z,1003.81
2022-08-28T08:05:51.554Z,1003.83
2022-08-28T08:06:55.756Z,1003.83
2022-08-28T08:07:52.510Z,1003.84
2022-08-28T08:08:51.511Z,1003.84
2022-08-28T08:09:51.503Z,1003.80
2022-08-28T08:10:51.488Z,1003.85
2022-08-28T08:11:51.467Z,1003.84
2022-08-28T08:12:52.327Z,1003.85
2022-08-28T08:13:51.449Z,1003.85
2022-08-28T08:14:51.458Z,1003.88
2022-08-28T08:15:51.517Z,1003.89
2022-08-28T08:16:51.427Z,1003.93
2022-08-28T08:17:51.416Z,1003.89
2022-08-28T08:18:51.392Z,1003.88
2022-08-28T08:19:51.403Z,1003.88
2022-08-28T08:20:51.388Z,1003.90
2022-08-28T08:21:54.883Z,1003.89
2022-08-28T08:22:51.370Z,1003.89
2022-08-28T08:23:51.338Z,1003.96
2022-08-28T08:24:51.387Z,1003.93
2022-08-28T08:25:51.327Z,1003.96
2022-08-28T08:26:59.585Z,1003.94
2022-08-28T08:27:52.292Z,1003.98
2022-08-28T08:28:51.288Z,1003.97
2022-08-28T08:29:51.332Z,1003.94
2022-08-28T08:30:51.293Z,1003.86
2022-08-28T08:31:51.524Z,1003.87
2022-08-28T08:32:51.243Z,1003.90
2022-08-28T08:33:51.236Z,1003.94
2022-08-28T08:34:51.221Z,1003.92
2022-08-28T08:35:51.231Z,1003.94
2022-08-28T08:36:51.196Z,1003.97
2022-08-28T08:37:51.208Z,1003.94
2022-08-28T08:38:59.431Z,1003.95
2022-08-28T08:39:51.172Z,1003.95
2022-08-28T08:40:51.172Z,1003.96
2022-08-28T08:41:51.145Z,1003.99
2022-08-28T08:42:51.148Z,1004.02
2022-08-28T08:43:51.137Z,1004.02
2022-08-28T08:44:51.120Z,1003.98
2022-08-28T08:45:51.140Z,1003.99
2022-08-28T08:46:51.108Z,1003.98
2022-08-28T08:47:51.090Z,1004.00
2022-08-28T08:48:51.095Z,1004.01
2022-08-28T08:49:51.129Z,1004.02
2022-08-28T08:50:51.071Z,1003.98
2022-08-28T08:51:51.036Z,1004.06
2022-08-28T08:52:51.033Z,1004.05
2022-08-28T08:53:51.037Z,1004.03
2022-08-28T08:54:51.015Z,1004.03
2022-08-28T08:55:50.990Z,1004.04
2022-08-28T08:56:50.982Z,1004.06
2022-08-28T08:57:50.972Z,1004.07
2022-08-28T08:58:50.959Z,1004.10
2022-08-28T08:59:50.992Z,1004.09
2022-08-28T09:00:50.947Z,1004.08
2022-08-28T09:01:50.986Z,1004.07
2022-08-28T09:02:50.998Z,1004.06
2022-08-28T09:03:53.686Z,1004.07
2022-08-28T09:04:50.895Z,1004.02
2022-08-28T09:05:50.903Z,1004.08
2022-08-28T09:06:50.884Z,1004.05
2022-08-28T09:07:53.182Z,1004.13
2022-08-28T09:08:50.849Z,1004.14
2022-08-28T09:09:50.880Z,1004.06
2022-08-28T09:10:50.831Z,1004.09
2022-08-28T09:11:54.552Z,1004.12
2022-08-28T09:12:51.812Z,1004.13
2022-08-28T09:13:50.790Z,1004.16
2022-08-28T09:14:50.824Z,1004.18
2022-08-28T09:15:51.122Z,1004.13
2022-08-28T09:16:50.864Z,1004.14
2022-08-28T09:17:50.761Z,1004.11
2022-08-28T09:18:50.787Z,1004.13
2022-08-28T09:19:50.759Z,1004.18
2022-08-28T09:20:50.750Z,1004.19
2022-08-28T09:21:50.741Z,1004.18
2022-08-28T09:22:50.743Z,1004.16
2022-08-28T09:23:50.717Z,1004.20
2022-08-28T09:24:50.702Z,1004.18
2022-08-28T09:25:51.342Z,1004.15
2022-08-28T09:26:50.662Z,1004.22
2022-08-28T09:27:50.702Z,1004.25
2022-08-28T09:28:50.755Z,1004.25
2022-08-28T09:29:50.633Z,1004.19
2022-08-28T09:30:50.663Z,1004.16
2022-08-28T09:31:50.676Z,1004.22
2022-08-28T09:32:50.640Z,1004.19
2022-08-28T09:33:50.624Z,1004.20
2022-08-28T09:34:50.640Z,1004.16
2022-08-28T09:35:50.572Z,1004.12
2022-08-28T09:36:50.571Z,1004.13
2022-08-28T09:37:50.561Z,1004.06
2022-08-28T09:38:50.544Z,1004.10
2022-08-28T09:39:50.544Z,1004.06
2022-08-28T09:40:50.511Z,1004.08
2022-08-28T09:41:50.501Z,1004.13
2022-08-28T09:42:50.497Z,1004.19
2022-08-28T09:43:50.493Z,1004.12
2022-08-28T09:44:51.916Z,1004.14
2022-08-28T09:45:50.538Z,1004.12
2022-08-28T09:46:50.432Z,1004.17
2022-08-28T09:47:50.421Z,1004.17
2022-08-28T09:48:50.464Z,1004.13
2022-08-28T09:49:50.405Z,1004.16
2022-08-28T09:50:50.407Z,1004.17
2022-08-28T09:51:50.396Z,1004.12
2022-08-28T09:52:50.370Z,1004.06
2022-08-28T09:53:50.358Z,1004.10
2022-08-28T09:54:50.345Z,1004.08
2022-08-28T09:55:50.348Z,1004.12
2022-08-28T09:56:50.337Z,1004.11
2022-08-28T09:57:50.323Z,1004.13
2022-08-28T09:58:50.322Z,1004.06
2022-08-28T09:59:50.288Z,1004.10
2022-08-28T10:00:50.284Z,1004.11
2022-08-28T10:01:50.320Z,1004.11
2022-08-28T10:02:50.278Z,1004.11
2022-08-28T10:03:50.250Z,1004.07
2022-08-28T10:04:50.332Z,1004.10
2022-08-28T10:05:50.223Z,1004.10
2022-08-28T10:06:50.234Z,1004.13
2022-08-28T10:07:50.210Z,1004.16
2022-08-28T10:08:50.244Z,1004.16
2022-08-28T10:09:50.189Z,1004.15
2022-08-28T10:10:50.167Z,1004.17
2022-08-28T10:11:50.165Z,1004.13
2022-08-28T10:12:50.148Z,1004.12
2022-08-28T10:13:50.137Z,1004.18
2022-08-28T10:14:50.210Z,1004.13
2022-08-28T10:15:50.196Z,1004.13
2022-08-28T10:16:50.106Z,1004.13
2022-08-28T10:17:50.093Z,1004.11
2022-08-28T10:18:50.089Z,1004.14
2022-08-28T10:19:50.067Z,1004.15
2022-08-28T10:20:50.098Z,1004.08
2022-08-28T10:21:50.061Z,1004.07
2022-08-28T10:22:50.081Z,1004.11
2022-08-28T10:23:50.075Z,1004.14
2022-08-28T10:24:50.029Z,1004.12
2022-08-28T10:25:50.025Z,1004.11
2022-08-28T10:26:50.057Z,1004.14
2022-08-28T10:27:49.991Z,1004.16
2022-08-28T10:28:50.007Z,1004.09
2022-08-28T10:29:49.999Z,1004.13
2022-08-28T10:30:49.983Z,1004.10
2022-08-28T10:31:49.960Z,1004.13
2022-08-28T10:32:49.975Z,1004.13
2022-08-28T10:33:49.927Z,1004.18
2022-08-28T10:34:49.913Z,1004.10
2022-08-28T10:35:49.908Z,1004.16
2022-08-28T10:36:49.889Z,1004.07
2022-08-28T10:37:49.896Z,1004.05
2022-08-28T10:38:53.076Z,1004.04
2022-08-28T10:39:49.885Z,1004.06
2022-08-28T10:40:49.857Z,1004.03
2022-08-28T10:41:49.844Z,1004.03
2022-08-28T10:42:49.879Z,1004.10
2022-08-28T10:43:49.820Z,1004.13
2022-08-28T10:44:49.834Z,1004.08
2022-08-28T10:45:49.845Z,1004.15
2022-08-28T10:46:49.788Z,1004.10
2022-08-28T10:47:49.790Z,1004.06
2022-08-28T10:48:49.814Z,1004.06
2022-08-28T10:49:49.750Z,1004.08
2022-08-28T10:50:49.752Z,1004.10
2022-08-28T10:51:49.771Z,1004.07
2022-08-28T10:52:49.724Z,1004.10
2022-08-28T10:53:49.730Z,1004.12
2022-08-28T10:54:49.695Z,1004.11
2022-08-28T10:55:49.703Z,1004.14
2022-08-28T10:56:56.557Z,1004.16
2022-08-28T10:57:50.663Z,1004.15
2022-08-28T10:58:49.673Z,1004.17
2022-08-28T10:59:49.644Z,1004.20
2022-08-28T11:00:49.643Z,1004.15
2022-08-28T11:01:49.671Z,1004.09
2022-08-28T11:02:49.656Z,1004.16
2022-08-28T11:03:49.612Z,1004.21
2022-08-28T11:04:49.681Z,1004.16
2022-08-28T11:05:53.822Z,1004.11
2022-08-28T11:06:49.639Z,1004.13
2022-08-28T11:07:49.582Z,1004.15
2022-08-28T11:08:49.544Z,1004.11
2022-08-28T11:09:49.540Z,1004.12
2022-08-28T11:10:49.528Z,1004.13
2022-08-28T11:11:49.529Z,1004.13
2022-08-28T11:12:49.568Z,1004.11
2022-08-28T11:13:49.489Z,1004.14
2022-08-28T11:14:49.481Z,1004.06
2022-08-28T11:15:49.531Z,1004.06
2022-08-28T11:16:49.501Z,1004.11
2022-08-28T11:17:49.447Z,1004.12
2022-08-28T11:18:49.451Z,1004.16
2022-08-28T11:19:52.381Z,1004.17
2022-08-28T11:20:49.418Z,1004.14
2022-08-28T11:21:49.408Z,1004.13
2022-08-28T11:22:49.406Z,1004.10
2022-08-28T11:23:49.403Z,1004.16
2022-08-28T11:24:49.418Z,1004.16
2022-08-28T11:25:49.363Z,1004.17
2022-08-28T11:26:49.351Z,1004.21
2022-08-28T11:27:49.368Z,1004.20
2022-08-28T11:28:49.329Z,1004.17
2022-08-28T11:29:49.338Z,1004.21
2022-08-28T11:30:49.367Z,1004.15
2022-08-28T11:31:49.299Z,1004.17
2022-08-28T11:32:49.278Z,1004.17
2022-08-28T11:33:49.277Z,1004.14
2022-08-28T11:34:49.270Z,1004.16
2022-08-28T11:35:49.275Z,1004.15
2022-08-28T11:36:49.255Z,1004.15
2022-08-28T11:37:49.241Z,1004.08
2022-08-28T11:38:49.242Z,1004.09
2022-08-28T11:39:49.207Z,1004.03
2022-08-28T11:40:49.192Z,1004.08
2022-08-28T11:41:49.197Z,1004.14
2022-08-28T11:42:49.195Z,1004.12
2022-08-28T11:43:49.174Z,1004.07
2022-08-28T11:44:49.534Z,1004.09
2022-08-28T11:45:49.197Z,1004.08
2022-08-28T11:46:49.140Z,1004.10
2022-08-28T11:47:49.120Z,1004.17
2022-08-28T11:48:49.122Z,1004.19
2022-08-28T11:49:49.129Z,1004.19
2022-08-28T11:50:49.089Z,1004.13
2022-08-28T11:51:49.082Z,1004.17
2022-08-28T11:52:49.064Z,1004.13
2022-08-28T11:53:49.078Z,1004.06
2022-08-28T11:54:49.062Z,1004.06
2022-08-28T11:55:49.057Z,1004.03
2022-08-28T11:56:49.057Z,1004.08
2022-08-28T11:57:49.016Z,1004.07
2022-08-28T11:58:49.008Z,1004.20
2022-08-28T11:59:49.011Z,1004.16
2022-08-28T12:00:49.003Z,1004.13
2022-08-28T12:01:48.987Z,1004.18
2022-08-28T12:02:49.078Z,1004.26
2022-08-28T12:03:49.049Z,1004.23
2022-08-28T12:04:48.976Z,1004.24
2022-08-28T12:05:48.928Z,1004.24
2022-08-28T12:06:48.918Z,1004.16
2022-08-28T12:07:48.956Z,1004.19
2022-08-28T12:08:48.895Z,1004.15
2022-08-28T12:09:48.918Z,1004.15
2022-08-28T12:10:48.875Z,1004.25
2022-08-28T12:11:48.867Z,1004.24
2022-08-28T12:12:48.849Z,1004.25
2022-08-28T12:13:48.877Z,1004.21
2022-08-28T12:14:48.828Z,1004.26
2022-08-28T12:15:48.863Z,1004.24
2022-08-28T12:16:48.817Z,1004.24
2022-08-28T12:17:48.815Z,1004.27
2022-08-28T12:18:48.792Z,1004.25
2022-08-28T12:19:55.588Z,1004.25
2022-08-28T12:20:48.794Z,1004.24
2022-08-28T12:21:48.760Z,1004.20
2022-08-28T12:22:48.744Z,1004.16
2022-08-28T12:23:48.731Z,1004.16
2022-08-28T12:24:48.722Z,1004.14
2022-08-28T12:25:48.731Z,1004.11
2022-08-28T12:26:48.734Z,1004.14
2022-08-28T12:27:48.699Z,1004.10
2022-08-28T12:28:48.712Z,1004.07
2022-08-28T12:29:48.673Z,1004.12
2022-08-28T12:30:48.695Z,1004.10
2022-08-28T12:31:48.661Z,1004.12
2022-08-28T12:32:48.636Z,1004.09
2022-08-28T12:33:48.643Z,1004.05
2022-08-28T12:34:48.683Z,1004.07
2022-08-28T12:35:48.613Z,1004.11
2022-08-28T12:36:52.006Z,1004.07
2022-08-28T12:37:52.146Z,1004.06
2022-08-28T12:38:48.576Z,1004.08
2022-08-28T12:39:48.566Z,1004.01
2022-08-28T12:40:48.590Z,1004.04
2022-08-28T12:41:48.547Z,1004.02
2022-08-28T12:42:50.984Z,1003.95
2022-08-28T12:43:49.568Z,1003.99
2022-08-28T12:44:48.510Z,1003.98
2022-08-28T12:45:48.565Z,1003.98
2022-08-28T12:46:48.482Z,1003.93
2022-08-28T12:47:48.478Z,1003.93
2022-08-28T12:48:48.468Z,1003.94
2022-08-28T12:49:48.486Z,1003.94
2022-08-28T12:50:48.475Z,1003.98
2022-08-28T12:51:48.426Z,1003.95
2022-08-28T12:52:48.432Z,1003.95
2022-08-28T12:53:48.418Z,1004.00
2022-08-28T12:54:48.419Z,1004.01
2022-08-28T12:55:48.385Z,1003.99
2022-08-28T12:56:48.410Z,1004.01
2022-08-28T12:57:48.381Z,1003.96
2022-08-28T12:58:48.364Z,1003.96
2022-08-28T12:59:48.348Z,1003.92
2022-08-28T13:00:48.378Z,1003.93
2022-08-28T13:01:48.474Z,1003.92
2022-08-28T13:02:50.752Z,1003.91
2022-08-28T13:03:48.310Z,1003.92
2022-08-28T13:04:48.298Z,1003.91
2022-08-28T13:05:48.346Z,1003.94
2022-08-28T13:06:48.288Z,1003.87
2022-08-28T13:07:48.258Z,1003.94
2022-08-28T13:08:48.263Z,1003.87
2022-08-28T13:09:48.256Z,1003.90
2022-08-28T13:10:48.232Z,1003.84
2022-08-28T13:11:48.222Z,1003.82
2022-08-28T13:12:55.951Z,1003.85
2022-08-28T13:13:49.216Z,1003.78
2022-08-28T13:14:48.211Z,1003.78
2022-08-28T13:15:48.184Z,1003.77
2022-08-28T13:16:48.191Z,1003.75
2022-08-28T13:17:48.152Z,1003.77
2022-08-28T13:18:48.158Z,1003.77
2022-08-28T13:19:48.131Z,1003.73
2022-08-28T13:20:48.120Z,1003.70
2022-08-28T13:21:48.126Z,1003.75
2022-08-28T13:22:50.727Z,1003.75
2022-08-28T13:23:48.100Z,1003.71
2022-08-28T13:24:48.078Z,1003.72
2022-08-28T13:25:48.095Z,1003.73
2022-08-28T13:26:48.056Z,1003.76
2022-08-28T13:27:48.063Z,1003.70
2022-08-28T13:28:48.033Z,1003.68
2022-08-28T13:29:48.049Z,1003.69
2022-08-28T13:30:48.050Z,1003.69
2022-08-28T13:31:48.007Z,1003.72
2022-08-28T13:32:47.995Z,1003.71
2022-08-28T13:33:47.996Z,1003.67
2022-08-28T13:34:48.346Z,1003.64
2022-08-28T13:35:47.982Z,1003.65
2022-08-28T13:36:47.961Z,1003.70
2022-08-28T13:37:47.946Z,1003.65
2022-08-28T13:38:47.934Z,1003.66
2022-08-28T13:39:47.950Z,1003.65
2022-08-28T13:41:03.412Z,1003.69
2022-08-28T13:41:48.903Z,1003.76
2022-08-28T13:42:47.910Z,1003.73
2022-08-28T13:43:47.908Z,1003.74
2022-08-28T13:44:47.856Z,1003.69
2022-08-28T13:45:47.903Z,1003.66
2022-08-28T13:46:47.843Z,1003.70
2022-08-28T13:47:47.832Z,1003.63
2022-08-28T13:48:47.862Z,1003.60
2022-08-28T13:49:47.832Z,1003.58
2022-08-28T13:50:47.813Z,1003.55
2022-08-28T13:51:47.820Z,1003.52
2022-08-28T13:52:47.788Z,1003.55
2022-08-28T13:53:47.792Z,1003.52
2022-08-28T13:54:47.765Z,1003.47
2022-08-28T13:55:47.751Z,1003.45
2022-08-28T13:56:47.732Z,1003.41
2022-08-28T13:57:47.746Z,1003.33
2022-08-28T13:58:56.765Z,1003.31
2022-08-28T13:59:52.370Z,1003.36
2022-08-28T14:00:48.811Z,1003.41
2022-08-28T14:01:47.840Z,1003.33
2022-08-28T14:02:47.718Z,1003.41
2022-08-28T14:03:47.685Z,1003.43
2022-08-28T14:04:47.685Z,1003.44
2022-08-28T14:05:47.636Z,1003.41
2022-08-28T14:06:47.629Z,1003.42
2022-08-28T14:07:47.616Z,1003.40
2022-08-28T14:08:47.605Z,1003.44
2022-08-28T14:09:47.623Z,1003.39
2022-08-28T14:10:47.604Z,1003.42
2022-08-28T14:11:47.576Z,1003.36
2022-08-28T14:12:47.571Z,1003.33
2022-08-28T14:13:55.515Z,1003.31
2022-08-28T14:14:47.540Z,1003.31
2022-08-28T14:15:47.586Z,1003.37
2022-08-28T14:16:47.592Z,1003.33
2022-08-28T14:17:47.503Z,1003.37
2022-08-28T14:18:47.497Z,1003.29
2022-08-28T14:19:47.504Z,1003.31
2022-08-28T14:20:47.495Z,1003.29
2022-08-28T14:21:47.494Z,1003.32
2022-08-28T14:22:47.478Z,1003.30
2022-08-28T14:23:47.443Z,1003.27
2022-08-28T14:24:47.422Z,1003.26
2022-08-28T14:25:47.427Z,1003.28
2022-08-28T14:26:47.429Z,1003.34
2022-08-28T14:27:47.410Z,1003.35
2022-08-28T14:28:47.377Z,1003.36
2022-08-28T14:29:47.397Z,1003.37
2022-08-28T14:30:47.360Z,1003.35
2022-08-28T14:31:47.403Z,1003.35
2022-08-28T14:32:47.338Z,1003.32
2022-08-28T14:33:47.335Z,1003.36
2022-08-28T14:34:47.329Z,1003.36
2022-08-28T14:35:47.335Z,1003.37
2022-08-28T14:36:47.292Z,1003.40
2022-08-28T14:37:47.277Z,1003.47
2022-08-28T14:38:47.276Z,1003.40
2022-08-28T14:39:47.305Z,1003.42
2022-08-28T14:40:47.246Z,1003.36
2022-08-28T14:41:47.241Z,1003.41
2022-08-28T14:42:47.279Z,1003.39
2022-08-28T14:43:47.223Z,1003.38
2022-08-28T14:44:47.211Z,1003.42
2022-08-28T14:45:47.289Z,1003.42
2022-08-28T14:46:47.184Z,1003.41
2022-08-28T14:47:47.172Z,1003.37
2022-08-28T14:48:47.200Z,1003.42
2022-08-28T14:49:47.204Z,1003.38
2022-08-28T14:50:47.142Z,1003.38
2022-08-28T14:51:47.151Z,1003.36
2022-08-28T14:52:47.130Z,1003.35
2022-08-28T14:53:47.110Z,1003.38
2022-08-28T14:54:47.149Z,1003.38
2022-08-28T14:55:47.093Z,1003.35
2022-08-28T14:56:47.081Z,1003.41
2022-08-28T14:57:48.088Z,1003.35
2022-08-28T14:58:47.056Z,1003.39
2022-08-28T14:59:47.047Z,1003.36
2022-08-28T15:00:47.107Z,1003.35
2022-08-28T15:01:47.023Z,1003.36
2022-08-28T15:02:47.014Z,1003.37
2022-08-28T15:03:47.096Z,1003.32
2022-08-28T15:04:46.994Z,1003.33
2022-08-28T15:05:47.027Z,1003.33
2022-08-28T15:06:46.975Z,1003.34
2022-08-28T15:07:46.978Z,1003.32
2022-08-28T15:08:46.954Z,1003.30
2022-08-28T15:09:46.942Z,1003.32
2022-08-28T15:10:46.954Z,1003.34
2022-08-28T15:11:46.932Z,1003.32
2022-08-28T15:12:46.909Z,1003.33
2022-08-28T15:13:46.900Z,1003.28
2022-08-28T15:14:51.351Z,1003.31
2022-08-28T15:15:46.887Z,1003.29
2022-08-28T15:16:46.933Z,1003.29
2022-08-28T15:17:46.866Z,1003.32
2022-08-28T15:18:46.871Z,1003.31
2022-08-28T15:19:46.838Z,1003.30
2022-08-28T15:20:46.828Z,1003.34
2022-08-28T15:21:46.829Z,1003.34
2022-08-28T15:22:46.811Z,1003.31
2022-08-28T15:23:46.799Z,1003.27
2022-08-28T15:24:46.809Z,1003.27
2022-08-28T15:25:46.771Z,1003.27
2022-08-28T15:26:46.765Z,1003.27
2022-08-28T15:27:46.749Z,1003.24
2022-08-28T15:28:46.738Z,1003.22
2022-08-28T15:29:46.779Z,1003.28
2022-08-28T15:30:46.734Z,1003.21
2022-08-28T15:31:46.779Z,1003.26
2022-08-28T15:32:46.720Z,1003.23
2022-08-28T15:33:46.747Z,1003.23
2022-08-28T15:34:46.693Z,1003.21
2022-08-28T15:35:46.672Z,1003.18
2022-08-28T15:36:54.851Z,1003.19
2022-08-28T15:37:47.652Z,1003.17
2022-08-28T15:38:46.675Z,1003.13
2022-08-28T15:39:46.620Z,1003.17
2022-08-28T15:40:46.652Z,1003.19
2022-08-28T15:41:47.109Z,1003.20
2022-08-28T15:42:46.589Z,1003.19
2022-08-28T15:43:47.893Z,1003.17
2022-08-28T15:44:46.575Z,1003.17
2022-08-28T15:45:46.650Z,1003.11
2022-08-28T15:46:46.563Z,1003.11
2022-08-28T15:47:46.551Z,1003.14
2022-08-28T15:48:46.527Z,1003.09
2022-08-28T15:49:52.011Z,1003.12
2022-08-28T15:50:47.509Z,1003.15
2022-08-28T15:51:46.486Z,1003.10
2022-08-28T15:52:46.507Z,1003.10
2022-08-28T15:53:46.492Z,1003.10
2022-08-28T15:54:46.464Z,1003.08
2022-08-28T15:55:46.443Z,1003.09
2022-08-28T15:56:46.437Z,1003.11
2022-08-28T15:57:46.426Z,1003.12
2022-08-28T15:58:46.456Z,1003.14
2022-08-28T15:59:50.205Z,1003.09
2022-08-28T16:00:46.525Z,1003.15
2022-08-28T16:01:46.434Z,1003.16
2022-08-28T16:02:46.379Z,1003.11
2022-08-28T16:03:46.380Z,1003.12
2022-08-28T16:04:46.375Z,1003.13
2022-08-28T16:05:46.341Z,1003.13
2022-08-28T16:06:46.332Z,1003.08
2022-08-28T16:07:46.324Z,1003.10
2022-08-28T16:08:46.332Z,1003.11
2022-08-28T16:09:46.302Z,1003.10
2022-08-28T16:10:46.325Z,1003.07
2022-08-28T16:11:46.288Z,1003.10
2022-08-28T16:12:47.877Z,1003.06
2022-08-28T16:13:46.264Z,1003.06
2022-08-28T16:14:46.268Z,1003.04
2022-08-28T16:15:46.287Z,1003.03
2022-08-28T16:16:49.060Z,1003.04
2022-08-28T16:17:46.222Z,1003.02
2022-08-28T16:18:46.226Z,1003.05
2022-08-28T16:19:46.210Z,1003.04
2022-08-28T16:20:46.175Z,1003.09
2022-08-28T16:21:46.178Z,1003.09
2022-08-28T16:22:46.190Z,1003.09
2022-08-28T16:23:46.171Z,1003.10
2022-08-28T16:24:46.199Z,1003.10
2022-08-28T16:25:46.137Z,1003.10
2022-08-28T16:26:46.118Z,1003.12
2022-08-28T16:27:46.104Z,1003.09
2022-08-28T16:28:46.115Z,1003.11
2022-08-28T16:29:46.120Z,1003.07
2022-08-28T16:30:46.100Z,1003.14
2022-08-28T16:31:46.127Z,1003.17
2022-08-28T16:32:46.729Z,1003.15
2022-08-28T16:33:46.032Z,1003.18
2022-08-28T16:34:46.030Z,1003.18
2022-08-28T16:35:49.286Z,1003.13